createdAt,value
2022-11-26T00:02:14.731Z,4.47
2022-11-26T00:04:41.022Z,4.70
2022-11-26T00:07:09.066Z,3.40
2022-11-26T00:09:35.355Z,3.83
2022-11-26T00:12:01.639Z,4.20
2022-11-26T00:14:27.902Z,4.27
2022-11-26T00:16:54.182Z,4.23
2022-11-26T00:19:20.474Z,5.03
2022-11-26T00:21:46.747Z,4.10
2022-11-26T00:24:26.877Z,4.53
2022-11-26T00:26:53.774Z,3.30
2022-11-26T00:29:20.046Z,3.87
2022-11-26T00:31:46.402Z,4.13
2022-11-26T00:34:12.734Z,3.90
2022-11-26T00:36:39.109Z,5.53
2022-11-26T00:39:13.574Z,3.63
2022-11-26T00:41:40.126Z,4.05
2022-11-26T00:44:26.725Z,2.97
2022-11-26T00:46:52.983Z,3.20
2022-11-26T00:49:19.331Z,3.80
2022-11-26T00:51:46.504Z,4.07
2022-11-26T00:54:14.908Z,4.07
2022-11-26T00:56:41.484Z,3.70
2022-11-26T00:59:10.830Z,3.30
2022-11-26T01:01:37.569Z,3.50
2022-11-26T01:04:04.049Z,3.40
2022-11-26T01:06:31.851Z,3.80
2022-11-26T01:08:58.183Z,4.30
2022-11-26T01:11:24.583Z,3.97
2022-11-26T01:13:52.206Z,4.17
2022-11-26T01:16:18.509Z,3.97
2022-11-26T01:18:45.148Z,4.20
2022-11-26T01:21:11.586Z,4.40
2022-11-26T01:23:37.934Z,4.53
2022-11-26T01:26:06.611Z,3.40
2022-11-26T01:28:33.063Z,4.37
2022-11-26T01:30:59.381Z,3.67
2022-11-26T01:33:25.639Z,5.17
2022-11-26T01:35:51.886Z,4.37
2022-11-26T01:38:18.334Z,3.73
2022-11-26T01:40:44.557Z,4.30
2022-11-26T01:43:13.932Z,3.57
2022-11-26T01:45:40.297Z,4.00
2022-11-26T01:48:20.352Z,3.43
2022-11-26T01:50:54.634Z,4.93
2022-11-26T01:53:32.864Z,3.63
2022-11-26T01:56:00.717Z,4.10
2022-11-26T01:58:53.215Z,3.53
2022-11-26T02:01:19.958Z,4.37
2022-11-26T02:04:04.982Z,5.73
2022-11-26T02:06:32.643Z,4.47
2022-11-26T02:08:59.930Z,3.93
2022-11-26T02:11:26.536Z,3.50
2022-11-26T02:13:54.987Z,3.97
2022-11-26T02:16:31.455Z,3.00
2022-11-26T02:19:12.952Z,4.53
2022-11-26T02:21:42.342Z,4.47
2022-11-26T02:24:15.758Z,3.60
2022-11-26T02:26:45.195Z,4.70
2022-11-26T02:29:17.336Z,3.60
2022-11-26T02:31:46.658Z,3.50
2022-11-26T02:34:15.543Z,3.50
2022-11-26T02:36:44.816Z,5.10
2022-11-26T02:39:15.014Z,5.20
2022-11-26T02:41:42.283Z,4.77
2022-11-26T02:44:08.598Z,4.97
2022-11-26T02:46:35.014Z,4.30
2022-11-26T02:49:02.286Z,3.97
2022-11-26T02:51:34.559Z,3.90
2022-11-26T02:54:01.403Z,5.07
2022-11-26T02:56:28.940Z,4.20
2022-11-26T02:58:55.702Z,3.77
2022-11-26T03:01:29.177Z,4.80
2022-11-26T03:03:58.311Z,3.67
2022-11-26T03:06:27.354Z,5.07
2022-11-26T03:08:54.590Z,4.43
2022-11-26T03:11:21.322Z,3.67
2022-11-26T03:13:48.679Z,5.00
2022-11-26T03:16:15.273Z,4.90
2022-11-26T03:18:41.828Z,3.97
2022-11-26T03:21:08.099Z,4.40
2022-11-26T03:23:34.400Z,3.47
2022-11-26T03:26:00.840Z,4.67
2022-11-26T03:28:27.134Z,4.37
2022-11-26T03:30:53.397Z,4.40
2022-11-26T03:33:19.663Z,4.43
2022-11-26T03:35:47.477Z,5.27
2022-11-26T03:38:13.780Z,5.13
2022-11-26T03:40:40.068Z,3.80
2022-11-26T03:43:06.343Z,3.87
2022-11-26T03:45:32.735Z,4.87
2022-11-26T03:47:59.125Z,4.37
2022-11-26T03:50:25.417Z,5.23
2022-11-26T03:52:51.758Z,4.63
2022-11-26T03:55:18.089Z,4.87
2022-11-26T03:57:44.351Z,4.90
2022-11-26T04:00:10.978Z,4.90
2022-11-26T04:02:37.296Z,4.17
2022-11-26T04:05:04.258Z,4.03
2022-11-26T04:07:30.570Z,3.80
2022-11-26T04:09:56.876Z,4.03
2022-11-26T04:12:23.140Z,4.00
2022-11-26T04:14:49.429Z,4.13
2022-11-26T04:17:15.691Z,4.07
2022-11-26T04:19:42.034Z,4.20
2022-11-26T04:22:08.430Z,4.23
2022-11-26T04:24:34.686Z,3.93
2022-11-26T04:27:00.944Z,3.67
2022-11-26T04:29:27.203Z,4.03
2022-11-26T04:31:53.548Z,4.03
2022-11-26T04:34:19.940Z,3.63
2022-11-26T04:36:46.275Z,4.20
2022-11-26T04:39:12.647Z,3.53
2022-11-26T04:41:39.006Z,3.43
2022-11-26T04:44:05.274Z,4.27
2022-11-26T04:46:31.561Z,3.93
2022-11-26T04:48:57.830Z,5.00
2022-11-26T04:51:24.085Z,5.00
2022-11-26T04:53:54.549Z,3.47
2022-11-26T04:56:23.438Z,5.23
2022-11-26T04:58:49.786Z,3.10
2022-11-26T05:01:16.140Z,3.70
2022-11-26T05:03:42.738Z,4.07
2022-11-26T05:06:09.104Z,4.37
2022-11-26T05:08:35.359Z,4.80
2022-11-26T05:11:03.014Z,4.13
2022-11-26T05:13:29.409Z,4.57
2022-11-26T05:15:55.698Z,3.67
2022-11-26T05:18:21.967Z,4.00
2022-11-26T05:20:48.223Z,3.90
2022-11-26T05:23:14.521Z,3.90
2022-11-26T05:25:40.828Z,3.87
2022-11-26T05:28:07.140Z,3.90
2022-11-26T05:30:33.487Z,5.00
2022-11-26T05:32:59.734Z,4.10
2022-11-26T05:35:26.055Z,4.20
2022-11-26T05:37:52.326Z,3.37
2022-11-26T05:40:18.651Z,3.27
2022-11-26T05:42:44.927Z,3.77
2022-11-26T05:45:11.212Z,2.63
2022-11-26T05:47:37.484Z,4.30
2022-11-26T05:50:04.005Z,3.43
2022-11-26T05:52:30.728Z,3.20
2022-11-26T05:54:57.086Z,3.70
2022-11-26T05:57:23.367Z,5.57
2022-11-26T05:59:49.643Z,4.30
2022-11-26T06:02:15.976Z,5.10
2022-11-26T06:04:43.121Z,4.50
2022-11-26T06:07:09.625Z,3.77
2022-11-26T06:09:36.630Z,3.63
2022-11-26T06:12:03.285Z,3.90
2022-11-26T06:14:29.561Z,3.73
2022-11-26T06:16:55.851Z,4.00
2022-11-26T06:19:22.553Z,3.93
2022-11-26T06:21:48.810Z,4.80
2022-11-26T06:24:15.123Z,2.87
2022-11-26T06:26:41.389Z,5.07
2022-11-26T06:29:07.649Z,4.40
2022-11-26T06:31:34.019Z,4.70
2022-11-26T06:34:00.381Z,5.87
2022-11-26T06:36:26.713Z,5.27
2022-11-26T06:38:52.990Z,5.30
2022-11-26T06:41:19.236Z,5.20
2022-11-26T06:43:45.493Z,4.53
2022-11-26T06:46:11.825Z,6.40
2022-11-26T06:48:38.574Z,5.70
2022-11-26T06:51:06.014Z,4.87
2022-11-26T06:53:32.358Z,7.00
2022-11-26T06:56:05.728Z,5.83
2022-11-26T06:58:32.063Z,5.77
2022-11-26T07:00:58.473Z,5.00
2022-11-26T07:03:28.083Z,3.43
2022-11-26T07:05:56.847Z,3.63
2022-11-26T07:08:23.090Z,4.17
2022-11-26T07:10:49.461Z,2.80
2022-11-26T07:13:16.793Z,3.00
2022-11-26T07:15:43.112Z,3.83
2022-11-26T07:18:09.399Z,3.50
2022-11-26T07:21:02.941Z,4.50
2022-11-26T07:23:29.265Z,5.67
2022-11-26T07:25:58.092Z,3.53
2022-11-26T07:28:24.410Z,3.60
2022-11-26T07:30:50.799Z,4.37
2022-11-26T07:33:17.087Z,4.13
2022-11-26T07:35:43.353Z,4.80
2022-11-26T07:38:09.649Z,5.13
2022-11-26T07:40:35.915Z,3.97
2022-11-26T07:43:02.198Z,3.50
2022-11-26T07:45:28.451Z,4.53
2022-11-26T07:47:54.742Z,3.93
2022-11-26T07:50:21.017Z,3.40
2022-11-26T07:52:47.345Z,3.90
2022-11-26T07:55:13.639Z,5.43
2022-11-26T07:57:39.955Z,7.67
2022-11-26T08:00:06.638Z,6.13
2022-11-26T08:02:32.945Z,5.77
2022-11-26T08:04:59.258Z,4.90
2022-11-26T08:07:29.221Z,6.33
2022-11-26T08:09:55.915Z,5.73
2022-11-26T08:12:22.161Z,5.60
2022-11-26T08:14:48.461Z,6.80
2022-11-26T08:17:14.737Z,4.43
2022-11-26T08:19:41.020Z,5.17
2022-11-26T08:22:07.384Z,5.57
2022-11-26T08:24:33.705Z,6.37
2022-11-26T08:26:59.970Z,6.37
2022-11-26T08:29:26.238Z,5.63
2022-11-26T08:31:52.627Z,6.00
2022-11-26T08:34:19.340Z,4.97
2022-11-26T08:36:45.860Z,5.00
2022-11-26T08:39:13.501Z,4.50
2022-11-26T08:41:39.771Z,4.87
2022-11-26T08:44:07.770Z,5.60
2022-11-26T08:46:38.737Z,7.33
2022-11-26T08:49:05.240Z,5.07
2022-11-26T08:51:31.779Z,6.73
2022-11-26T08:53:58.077Z,7.80
2022-11-26T08:56:24.677Z,5.93
2022-11-26T08:58:51.460Z,5.37
2022-11-26T09:01:19.225Z,5.63
2022-11-26T09:03:48.924Z,6.20
2022-11-26T09:06:15.484Z,5.40
2022-11-26T09:09:04.796Z,8.60
2022-11-26T09:11:31.845Z,7.53
2022-11-26T09:13:58.478Z,5.67
2022-11-26T09:16:25.036Z,6.07
2022-11-26T09:18:51.787Z,5.33
2022-11-26T09:21:18.651Z,6.50
2022-11-26T09:23:44.957Z,6.43
2022-11-26T09:26:11.240Z,5.30
2022-11-26T09:28:37.535Z,5.93
2022-11-26T09:31:03.830Z,5.50
2022-11-26T09:33:30.569Z,6.87
2022-11-26T09:36:07.687Z,6.10
2022-11-26T09:38:34.496Z,5.10
2022-11-26T09:41:12.487Z,7.67
2022-11-26T09:43:46.349Z,5.00
2022-11-26T09:46:14.032Z,5.30
2022-11-26T09:48:40.579Z,5.33
2022-11-26T09:51:14.458Z,7.27
2022-11-26T09:53:43.057Z,6.87
2022-11-26T09:56:13.146Z,5.57
2022-11-26T09:58:46.311Z,6.60
2022-11-26T10:01:16.680Z,6.07
2022-11-26T10:03:43.209Z,7.37
2022-11-26T10:06:21.551Z,7.13
2022-11-26T10:09:06.277Z,6.40
2022-11-26T10:11:39.555Z,6.63
2022-11-26T10:14:06.066Z,7.60
2022-11-26T10:16:35.360Z,5.90
2022-11-26T10:19:01.633Z,7.30
2022-11-26T10:21:58.590Z,6.77
2022-11-26T10:24:45.710Z,6.60
2022-11-26T10:27:16.763Z,6.17
2022-11-26T10:29:43.898Z,6.97
2022-11-26T10:32:15.234Z,6.40
2022-11-26T10:34:46.602Z,6.43
2022-11-26T10:37:13.390Z,8.13
2022-11-26T10:39:39.680Z,7.13
2022-11-26T10:42:32.271Z,7.10
2022-11-26T10:45:15.701Z,6.77
2022-11-26T10:47:41.978Z,5.87
2022-11-26T10:50:31.892Z,6.10
2022-11-26T10:52:54.546Z,5.90
2022-11-26T10:55:30.589Z,5.87
2022-11-26T10:57:58.868Z,7.37
2022-11-26T11:00:43.803Z,6.57
2022-11-26T11:03:17.444Z,5.95
2022-11-26T11:05:44.209Z,6.23
2022-11-26T11:08:14.648Z,6.77
2022-11-26T11:10:52.711Z,7.13
2022-11-26T11:13:18.968Z,7.50
2022-11-26T11:15:45.298Z,7.22
2022-11-26T11:18:15.457Z,6.90
2022-11-26T11:20:43.038Z,7.60
2022-11-26T11:23:12.333Z,6.83
2022-11-26T11:25:39.850Z,6.53
2022-11-26T11:28:12.249Z,7.10
2022-11-26T11:30:39.503Z,6.32
2022-11-26T11:33:14.791Z,5.67
2022-11-26T11:38:24.561Z,7.43
2022-11-26T11:40:50.887Z,6.65
2022-11-26T11:43:19.694Z,7.22
2022-11-26T11:45:59.109Z,6.90
2022-11-26T11:48:38.834Z,6.47
2022-11-26T11:51:34.399Z,6.15
2022-11-26T11:54:21.191Z,6.40
2022-11-26T11:56:59.014Z,6.60
2022-11-26T11:59:47.459Z,8.45
2022-11-26T12:02:16.588Z,6.80
2022-11-26T12:04:48.903Z,7.47
2022-11-26T12:07:24.272Z,7.57
2022-11-26T12:10:09.643Z,6.57
2022-11-26T12:12:40.509Z,6.47
2022-11-26T12:15:18.251Z,8.00
2022-11-26T12:17:44.600Z,6.95
2022-11-26T12:20:14.920Z,6.72
2022-11-26T12:22:44.416Z,6.30
2022-11-26T12:25:16.822Z,6.90
2022-11-26T12:27:45.942Z,7.30
2022-11-26T12:30:14.023Z,6.40
2022-11-26T12:32:58.834Z,8.60
2022-11-26T12:35:28.080Z,7.55
2022-11-26T12:37:58.151Z,8.30
2022-11-26T12:40:43.513Z,7.85
2022-11-26T12:43:13.367Z,7.15
2022-11-26T12:45:48.644Z,6.15
2022-11-26T12:50:46.351Z,6.00
2022-11-26T12:53:33.680Z,7.50
2022-11-26T12:56:08.892Z,7.63
2022-11-26T13:01:01.424Z,8.73
2022-11-26T13:03:29.686Z,7.03
2022-11-26T13:06:16.228Z,5.85
2022-11-26T13:08:56.662Z,6.72
2022-11-26T13:11:39.266Z,6.05
2022-11-26T13:14:22.725Z,7.20
2022-11-26T13:17:05.247Z,7.10
2022-11-26T13:19:31.606Z,6.97
2022-11-26T13:22:07.968Z,6.40
2022-11-26T13:24:55.824Z,5.82
2022-11-26T13:27:22.133Z,6.38
2022-11-26T13:30:04.336Z,6.97
2022-11-26T13:32:42.805Z,6.60
2022-11-26T13:35:28.021Z,7.10
2022-11-26T13:37:54.534Z,5.40
2022-11-26T13:40:27.063Z,7.05
2022-11-26T13:43:02.299Z,5.88
2022-11-26T13:48:09.188Z,6.15
2022-11-26T13:50:58.444Z,5.65
2022-11-26T13:53:28.596Z,5.18
2022-11-26T13:55:56.923Z,3.80
2022-11-26T13:58:25.693Z,6.55
2022-11-26T14:00:52.136Z,6.13
2022-11-26T14:03:37.002Z,3.78
2022-11-26T14:06:07.858Z,4.90
2022-11-26T14:08:43.882Z,4.38
2022-11-26T14:11:10.722Z,5.30
2022-11-26T14:13:37.655Z,4.63
2022-11-26T14:16:10.589Z,4.35
2022-11-26T14:18:48.960Z,5.13
2022-11-26T14:21:15.803Z,3.35
2022-11-26T14:23:45.729Z,3.90
2022-11-26T14:26:17.770Z,7.82
2022-11-26T14:28:44.664Z,3.80
2022-11-26T14:31:14.081Z,4.93
2022-11-26T14:33:44.966Z,4.38
2022-11-26T14:36:25.060Z,4.38
2022-11-26T14:39:04.564Z,7.35
2022-11-26T14:41:34.993Z,4.97
2022-11-26T14:44:08.894Z,4.35
2022-11-26T14:46:35.542Z,3.88
2022-11-26T14:49:02.822Z,3.95
2022-11-26T14:51:29.189Z,3.20
2022-11-26T14:53:56.439Z,4.25
2022-11-26T14:56:23.726Z,4.30
2022-11-26T14:58:52.480Z,3.63
2022-11-26T15:01:20.995Z,4.32
2022-11-26T15:03:55.010Z,3.55
2022-11-26T15:06:26.253Z,4.20
2022-11-26T15:09:03.661Z,2.65
2022-11-26T15:11:30.551Z,4.10
2022-11-26T15:13:56.858Z,4.20
2022-11-26T15:16:33.958Z,3.42
2022-11-26T15:19:01.141Z,3.28
2022-11-26T15:21:27.866Z,4.25
2022-11-26T15:23:56.049Z,4.88
2022-11-26T15:26:25.703Z,3.47
2022-11-26T15:28:52.068Z,3.70
2022-11-26T15:31:18.407Z,3.83
2022-11-26T15:33:45.211Z,4.75
2022-11-26T15:36:17.210Z,4.70
2022-11-26T15:39:01.061Z,3.42
2022-11-26T15:41:27.398Z,3.50
2022-11-26T15:43:54.673Z,3.45
2022-11-26T15:46:21.148Z,4.85
2022-11-26T15:48:53.344Z,4.18
2022-11-26T15:51:46.113Z,3.70
2022-11-26T15:54:21.621Z,3.83
2022-11-26T15:56:58.179Z,3.53
2022-11-26T15:59:25.867Z,3.72
2022-11-26T16:01:52.327Z,4.10
2022-11-26T16:04:33.735Z,3.55
2022-11-26T16:07:10.502Z,4.28
2022-11-26T16:09:36.863Z,3.25
2022-11-26T16:12:03.261Z,3.90
2022-11-26T16:14:29.560Z,4.35
2022-11-26T16:17:05.089Z,3.65
2022-11-26T16:19:34.228Z,3.72
2022-11-26T16:22:02.155Z,4.70
2022-11-26T16:24:34.197Z,4.78
2022-11-26T16:27:07.783Z,4.03
2022-11-26T16:29:35.807Z,4.78
2022-11-26T16:32:03.121Z,5.82
2022-11-26T16:34:29.591Z,5.03
2022-11-26T16:37:00.345Z,5.95
2022-11-26T16:39:30.218Z,5.20
2022-11-26T16:41:56.870Z,5.22
2022-11-26T16:44:23.308Z,5.32
2022-11-26T16:46:50.685Z,4.57
2022-11-26T16:49:17.325Z,5.28
2022-11-26T16:51:43.592Z,3.95
2022-11-26T16:54:09.897Z,5.80
2022-11-26T16:56:38.037Z,4.75
2022-11-26T16:59:05.969Z,6.20
2022-11-26T17:01:33.141Z,5.57
2022-11-26T17:03:59.424Z,7.03
2022-11-26T17:06:27.876Z,4.05
2022-11-26T17:08:55.067Z,5.00
2022-11-26T17:11:21.413Z,5.10
2022-11-26T17:13:47.737Z,4.95
2022-11-26T17:16:15.553Z,5.53
2022-11-26T17:18:41.846Z,5.53
2022-11-26T17:21:08.642Z,5.68
2022-11-26T17:23:34.896Z,4.00
2022-11-26T17:26:01.475Z,5.30
2022-11-26T17:28:27.912Z,4.90
2022-11-26T17:30:55.834Z,5.60
2022-11-26T17:33:22.240Z,6.47
2022-11-26T17:35:48.531Z,4.53
2022-11-26T17:38:16.066Z,4.97
2022-11-26T17:40:43.073Z,4.25
2022-11-26T17:43:09.645Z,5.43
2022-11-26T17:45:36.000Z,5.03
2022-11-26T17:48:02.297Z,5.70
2022-11-26T17:50:29.370Z,6.15
2022-11-26T17:52:55.706Z,5.22
2022-11-26T17:55:22.919Z,5.57
2022-11-26T17:57:49.489Z,4.97
2022-11-26T18:00:18.638Z,5.80
2022-11-26T18:02:46.233Z,4.68
2022-11-26T18:05:12.993Z,5.27
2022-11-26T18:07:39.715Z,5.80
2022-11-26T18:10:07.517Z,5.00
2022-11-26T18:12:33.979Z,5.00
2022-11-26T18:15:01.919Z,5.17
2022-11-26T18:17:28.202Z,4.07
2022-11-26T18:19:54.646Z,4.23
2022-11-26T18:22:22.010Z,5.17
2022-11-26T18:24:56.576Z,4.83
2022-11-26T18:27:25.218Z,4.20
2022-11-26T18:29:51.521Z,4.70
2022-11-26T18:32:17.967Z,5.78
2022-11-26T18:34:44.238Z,5.97
2022-11-26T18:37:11.871Z,7.40
2022-11-26T18:39:38.444Z,4.53
2022-11-26T18:42:35.377Z,4.97
2022-11-26T18:44:51.254Z,4.37
2022-11-26T18:47:17.538Z,4.67
2022-11-26T18:49:47.449Z,4.73
2022-11-26T18:52:14.105Z,4.13
2022-11-26T18:54:40.386Z,6.13
2022-11-26T18:57:06.661Z,5.47
2022-11-26T18:59:32.993Z,5.53
2022-11-26T19:01:59.274Z,4.50
2022-11-26T19:04:25.586Z,4.77
2022-11-26T19:06:52.388Z,5.20
2022-11-26T19:09:19.883Z,5.57
2022-11-26T19:11:46.682Z,4.80
2022-11-26T19:14:13.670Z,4.73
2022-11-26T19:16:40.683Z,5.03
2022-11-26T19:19:07.515Z,4.50
2022-11-26T19:21:34.065Z,5.20
2022-11-26T19:24:01.740Z,6.10
2022-11-26T19:26:28.557Z,6.93
2022-11-26T19:28:54.981Z,8.70
2022-11-26T19:31:23.084Z,6.53
2022-11-26T19:33:57.877Z,6.80
2022-11-26T19:36:24.636Z,8.85
2022-11-26T19:38:57.269Z,7.60
2022-11-26T19:41:25.796Z,7.53
2022-11-26T19:43:52.831Z,6.17
2022-11-26T19:46:20.388Z,5.27
2022-11-26T19:48:47.456Z,6.30
2022-11-26T19:51:14.745Z,4.80
2022-11-26T19:53:41.009Z,5.87
2022-11-26T19:56:09.076Z,5.10
2022-11-26T19:58:36.190Z,5.07
2022-11-26T20:01:05.886Z,5.73
2022-11-26T20:03:37.189Z,5.47
2022-11-26T20:06:05.164Z,5.37
2022-11-26T20:08:31.800Z,5.53
2022-11-26T20:11:08.100Z,5.37
2022-11-26T20:13:36.098Z,6.10
2022-11-26T20:16:09.742Z,4.83
2022-11-26T20:18:37.281Z,5.93
2022-11-26T20:21:06.012Z,4.43
2022-11-26T20:23:32.254Z,5.13
2022-11-26T20:25:58.570Z,7.30
2022-11-26T20:28:25.858Z,5.90
2022-11-26T20:30:52.230Z,4.60
2022-11-26T20:33:18.923Z,5.00
2022-11-26T20:35:45.588Z,5.87
2022-11-26T20:38:12.249Z,5.73
2022-11-26T20:40:39.700Z,5.97
2022-11-26T20:43:05.976Z,5.73
2022-11-26T20:45:32.255Z,5.27
2022-11-26T20:47:58.510Z,5.67
2022-11-26T20:50:24.827Z,4.47
2022-11-26T20:52:51.166Z,4.67
2022-11-26T20:55:21.734Z,4.27
2022-11-26T20:57:48.833Z,6.57
2022-11-26T21:00:17.007Z,5.77
2022-11-26T21:02:46.673Z,5.37
2022-11-26T21:05:14.053Z,5.33
2022-11-26T21:07:40.611Z,5.77
2022-11-26T21:10:07.521Z,5.83
2022-11-26T21:12:33.947Z,6.07
2022-11-26T21:15:00.217Z,7.33
2022-11-26T21:17:26.709Z,7.03
2022-11-26T21:19:53.071Z,5.63
2022-11-26T21:22:19.446Z,7.27
2022-11-26T21:24:45.828Z,6.20
2022-11-26T21:27:12.142Z,5.80
2022-11-26T21:29:38.729Z,7.07
2022-11-26T21:32:05.562Z,5.83
2022-11-26T21:34:31.882Z,6.13
2022-11-26T21:36:58.421Z,5.53
2022-11-26T21:39:27.079Z,6.27
2022-11-26T21:41:53.554Z,5.53
2022-11-26T21:44:19.825Z,6.00
2022-11-26T21:46:47.360Z,6.10
2022-11-26T21:49:13.730Z,5.37
2022-11-26T21:51:40.845Z,5.23
2022-11-26T21:54:07.261Z,5.50
2022-11-26T21:56:33.756Z,5.67
2022-11-26T21:59:00.901Z,5.53
2022-11-26T22:01:28.441Z,5.40
2022-11-26T22:03:56.325Z,5.63
2022-11-26T22:06:23.255Z,3.90
2022-11-26T22:08:50.022Z,6.87
2022-11-26T22:11:17.858Z,5.83
2022-11-26T22:13:44.322Z,5.47
2022-11-26T22:16:11.681Z,5.77
2022-11-26T22:18:39.052Z,5.07
2022-11-26T22:21:10.654Z,6.00
2022-11-26T22:23:36.977Z,5.47
2022-11-26T22:26:03.397Z,4.60
2022-11-26T22:28:30.325Z,5.93
2022-11-26T22:30:56.854Z,4.03
2022-11-26T22:33:23.193Z,8.17
2022-11-26T22:35:49.446Z,4.10
2022-11-26T22:38:15.797Z,4.50
2022-11-26T22:40:42.062Z,4.30
2022-11-26T22:43:08.333Z,4.43
2022-11-26T22:45:36.689Z,4.73
2022-11-26T22:48:02.997Z,5.20
2022-11-26T22:50:29.273Z,4.50
2022-11-26T22:52:55.543Z,5.03
2022-11-26T22:55:23.274Z,4.07
2022-11-26T22:57:49.608Z,3.77
2022-11-26T23:00:36.022Z,5.50
2022-11-26T23:03:02.359Z,3.57
2022-11-26T23:05:28.746Z,4.40
2022-11-26T23:07:55.073Z,3.33
2022-11-26T23:10:21.403Z,4.07
2022-11-26T23:12:47.668Z,3.27
2022-11-26T23:15:13.943Z,4.07
2022-11-26T23:17:40.224Z,3.30
2022-11-26T23:20:06.898Z,4.37
2022-11-26T23:22:33.160Z,3.57
2022-11-26T23:24:59.414Z,3.13
2022-11-26T23:27:25.672Z,3.67
2022-11-26T23:29:52.230Z,5.73
2022-11-26T23:32:18.507Z,8.13
2022-11-26T23:34:44.816Z,3.70
2022-11-26T23:37:11.170Z,3.07
2022-11-26T23:39:37.580Z,4.63
2022-11-26T23:42:04.036Z,4.20
2022-11-26T23:44:30.324Z,3.20
2022-11-26T23:46:56.575Z,4.03
2022-11-26T23:49:23.023Z,4.77
2022-11-26T23:51:49.335Z,3.50
2022-11-26T23:54:15.609Z,4.13
2022-11-26T23:56:44.486Z,4.80
2022-11-26T23:59:11.362Z,3.43
